createdAt,value
2018-08-09T00:00:08.903Z,58.41
2018-08-09T00:02:37.825Z,58.81
2018-08-09T00:05:06.447Z,58.53
2018-08-09T00:07:36.957Z,58.62
2018-08-09T00:10:07.809Z,59.02
2018-08-09T00:12:36.882Z,59.08
2018-08-09T00:15:05.893Z,58.67
2018-08-09T00:17:34.620Z,57.90
2018-08-09T00:20:03.298Z,57.79
2018-08-09T00:22:31.892Z,58.90
2018-08-09T00:25:00.431Z,59.38
2018-08-09T00:27:33.921Z,59.69
2018-08-09T00:30:02.643Z,59.02
2018-08-09T00:32:31.675Z,59.75
2018-08-09T00:35:00.285Z,59.67
2018-08-09T00:37:28.817Z,60.14
2018-08-09T00:39:57.413Z,60.64
2018-08-09T00:42:26.280Z,60.19
2018-08-09T00:44:55.235Z,60.46
2018-08-09T00:47:24.217Z,61.24
2018-08-09T00:49:52.797Z,60.99
2018-08-09T00:52:21.363Z,61.31
2018-08-09T00:54:49.961Z,62.26
2018-08-09T00:57:18.513Z,62.77
2018-08-09T00:59:47.136Z,62.36
2018-08-09T01:02:15.667Z,61.66
2018-08-09T01:04:44.261Z,61.12
2018-08-09T01:07:17.413Z,60.99
2018-08-09T01:09:45.980Z,62.43
2018-08-09T01:12:14.572Z,62.88
2018-08-09T01:14:43.179Z,62.42
2018-08-09T01:17:12.058Z,62.36
2018-08-09T01:19:41.008Z,62.26
2018-08-09T01:22:09.580Z,61.35
2018-08-09T01:24:38.116Z,62.58
2018-08-09T01:27:08.828Z,63.34
2018-08-09T01:29:40.347Z,62.33
2018-08-09T01:32:10.040Z,62.26
2018-08-09T01:34:38.605Z,62.63
2018-08-09T01:37:07.759Z,63.04
2018-08-09T01:39:36.356Z,63.07
2018-08-09T01:44:20.588Z,63.06
2018-08-09T01:46:49.243Z,63.98
2018-08-09T01:49:18.330Z,63.55
2018-08-09T01:51:46.937Z,63.28
2018-08-09T01:54:15.729Z,63.44
2018-08-09T01:56:44.288Z,63.09
2018-08-09T01:59:12.883Z,62.91
2018-08-09T02:01:41.508Z,63.16
2018-08-09T02:04:10.244Z,63.54
2018-08-09T02:06:39.674Z,63.51
2018-08-09T02:09:12.413Z,62.96
2018-08-09T02:11:41.080Z,63.63
2018-08-09T02:14:09.618Z,63.61
2018-08-09T02:16:38.493Z,63.88
2018-08-09T02:19:07.885Z,63.40
2018-08-09T02:21:36.595Z,63.16
2018-08-09T02:24:05.565Z,63.32
2018-08-09T02:26:34.155Z,62.88
2018-08-09T02:29:02.730Z,63.65
2018-08-09T02:31:32.303Z,63.38
2018-08-09T02:34:00.872Z,62.89
2018-08-09T02:36:29.526Z,63.46
2018-08-09T02:38:58.218Z,63.83
2018-08-09T02:41:27.025Z,63.73
2018-08-09T02:43:55.670Z,63.61
2018-08-09T02:46:24.299Z,63.02
2018-08-09T02:48:53.040Z,62.91
2018-08-09T02:51:21.637Z,62.43
2018-08-09T02:53:50.299Z,62.82
2018-08-09T02:56:19.004Z,62.83
2018-08-09T02:58:47.591Z,63.30
2018-08-09T03:01:16.581Z,63.42
2018-08-09T03:03:45.167Z,63.00
2018-08-09T03:06:13.729Z,63.46
2018-08-09T03:08:42.356Z,62.15
2018-08-09T03:11:11.078Z,62.95
2018-08-09T03:13:39.753Z,63.33
2018-08-09T03:16:08.332Z,63.46
2018-08-09T03:18:36.931Z,62.53
2018-08-09T03:21:05.563Z,63.58
2018-08-09T03:23:34.455Z,62.48
2018-08-09T03:26:03.080Z,63.42
2018-08-09T03:28:31.799Z,64.18
2018-08-09T03:31:00.529Z,64.30
2018-08-09T03:33:29.049Z,64.01
2018-08-09T03:35:57.611Z,64.05
2018-08-09T03:38:26.511Z,63.82
2018-08-09T03:40:55.164Z,64.57
2018-08-09T03:43:23.739Z,64.05
2018-08-09T03:45:52.343Z,65.01
2018-08-09T03:48:20.915Z,65.27
2018-08-09T03:50:49.509Z,65.78
2018-08-09T03:53:18.138Z,66.37
2018-08-09T03:55:46.912Z,66.07
2018-08-09T03:58:15.647Z,65.74
2018-08-09T04:00:44.294Z,65.69
2018-08-09T04:03:14.087Z,65.43
2018-08-09T04:05:42.733Z,65.81
2018-08-09T04:11:02.955Z,64.83
2018-08-09T04:13:40.184Z,64.04
2018-08-09T04:16:09.123Z,63.69
2018-08-09T04:18:37.863Z,63.17
2018-08-09T04:21:06.436Z,62.74
2018-08-09T04:23:35.059Z,62.92
2018-08-09T04:26:03.636Z,62.12
2018-08-09T04:28:32.200Z,62.16
2018-08-09T04:31:01.077Z,62.52
2018-08-09T04:33:29.656Z,63.17
2018-08-09T04:35:58.609Z,63.83
2018-08-09T04:38:27.173Z,63.96
2018-08-09T04:40:55.760Z,63.69
2018-08-09T04:43:24.335Z,63.94
2018-08-09T05:02:54.889Z,63.31
2018-08-09T05:05:23.464Z,63.95
2018-08-09T05:07:52.036Z,63.71
2018-08-09T05:10:20.680Z,63.81
2018-08-09T05:12:49.249Z,64.30
2018-08-09T05:15:17.843Z,63.08
2018-08-09T05:17:46.397Z,63.04
2018-08-09T05:20:14.974Z,62.20
2018-08-09T05:22:43.520Z,62.05
2018-08-09T05:30:08.648Z,62.62
2018-08-09T05:32:37.195Z,62.51
2018-08-09T05:35:06.053Z,62.13
2018-08-09T05:37:34.679Z,61.55
2018-08-09T05:40:04.065Z,61.53
2018-08-09T05:42:33.448Z,60.52
2018-08-09T06:09:03.126Z,60.63
2018-08-09T06:11:31.760Z,59.73
2018-08-09T06:14:00.482Z,59.21
2018-08-09T06:16:29.025Z,58.74
2018-08-09T06:18:57.729Z,59.15
2018-08-09T06:22:33.089Z,59.46
2018-08-09T06:25:01.974Z,59.55
2018-08-09T06:27:30.545Z,59.31
2018-08-09T06:29:59.156Z,59.27
2018-08-09T06:32:27.796Z,58.44
2018-08-09T06:34:56.379Z,58.40
2018-08-09T06:37:24.962Z,57.77
2018-08-09T06:39:53.731Z,57.63
2018-08-09T06:45:21.095Z,57.06
2018-08-09T06:47:49.644Z,57.03
2018-08-09T06:50:18.243Z,56.65
2018-08-09T06:52:46.904Z,56.86
2018-08-09T06:55:15.588Z,56.08
2018-08-09T06:57:44.237Z,56.04
2018-08-09T07:00:13.639Z,55.80
2018-08-09T07:02:42.518Z,55.20
2018-08-09T07:05:11.284Z,55.13
2018-08-09T07:07:40.621Z,54.76
2018-08-09T07:10:09.896Z,54.42
2018-08-09T07:12:38.542Z,54.38
2018-08-09T07:15:09.960Z,53.73
2018-08-09T07:20:53.300Z,53.16
2018-08-09T07:23:21.856Z,52.06
2018-08-09T07:25:51.564Z,51.67
2018-08-09T07:28:20.263Z,51.46
2018-08-09T07:30:49.463Z,49.98
2018-08-09T07:34:37.298Z,49.69
2018-08-09T07:37:05.925Z,48.31
2018-08-09T07:42:25.033Z,47.70
2018-08-09T07:51:02.586Z,46.15
2018-08-09T07:53:31.357Z,47.21
2018-08-09T07:56:00.733Z,46.15
2018-08-09T07:58:29.311Z,45.83
2018-08-09T08:00:58.045Z,45.93
2018-08-09T08:03:26.603Z,45.86
2018-08-09T08:05:56.163Z,45.15
2018-08-09T08:08:24.846Z,44.24
2018-08-09T08:10:53.419Z,44.78
2018-08-09T08:13:22.016Z,44.56
2018-08-09T08:15:50.641Z,45.55
2018-08-09T08:18:19.180Z,44.93
2018-08-09T08:20:47.873Z,45.53
2018-08-09T08:23:16.460Z,45.40
2018-08-09T08:25:45.227Z,45.02
2018-08-09T08:28:13.783Z,45.18
2018-08-09T08:36:41.452Z,43.63
2018-08-09T08:39:10.871Z,43.59
2018-08-09T08:41:39.910Z,44.13
2018-08-09T08:49:51.486Z,42.71
2018-08-09T08:52:20.135Z,43.05
2018-08-09T09:00:29.499Z,42.45
2018-08-09T09:02:58.077Z,41.87
2018-08-09T09:05:26.662Z,42.17
2018-08-09T09:07:55.309Z,41.87
2018-08-09T09:10:24.512Z,42.17
2018-08-09T09:12:53.142Z,40.87
2018-08-09T09:15:21.716Z,41.43
2018-08-09T09:17:50.286Z,40.80
2018-08-09T09:20:18.927Z,40.78
2018-08-09T09:22:47.536Z,40.53
2018-08-09T09:25:16.139Z,40.66
2018-08-09T10:15:17.387Z,33.14
2018-08-09T10:17:45.968Z,32.69
2018-08-09T10:20:14.651Z,31.94
2018-08-09T10:22:43.203Z,32.53
2018-08-09T10:25:12.123Z,32.36
2018-08-09T10:34:11.533Z,31.30
2018-08-09T10:36:40.415Z,31.19
2018-08-09T11:03:06.161Z,31.39
2018-08-09T11:05:34.948Z,30.87
2018-08-09T11:08:03.610Z,29.66
2018-08-09T11:10:32.160Z,29.53
2018-08-09T11:13:00.728Z,29.61
2018-08-09T11:15:29.392Z,31.11
2018-08-09T11:17:58.016Z,30.37
2018-08-09T11:20:26.621Z,30.00
2018-08-09T11:22:55.224Z,29.87
2018-08-09T11:25:23.823Z,28.93
2018-08-09T11:27:52.367Z,29.91
2018-08-09T11:30:20.928Z,29.82
2018-08-09T11:32:49.474Z,29.91
2018-08-09T11:35:18.059Z,29.70
2018-08-09T11:37:46.588Z,28.67
2018-08-09T11:40:15.163Z,28.13
2018-08-09T11:42:43.923Z,28.95
2018-08-09T11:45:13.004Z,29.66
2018-08-09T11:47:41.615Z,28.96
2018-08-09T12:14:31.712Z,26.93
2018-08-09T12:17:00.517Z,25.73
2018-08-09T12:19:29.119Z,24.79
2018-08-09T12:48:57.084Z,23.32
2018-08-09T12:51:25.743Z,22.31
2018-08-09T12:53:54.417Z,22.84
2018-08-09T12:56:23.294Z,22.26
2018-08-09T13:04:32.883Z,21.09
2018-08-09T13:07:01.456Z,22.34
2018-08-09T13:09:30.099Z,23.93
2018-08-09T13:11:58.740Z,22.41
2018-08-09T13:14:27.568Z,21.44
2018-08-09T13:16:56.166Z,21.39
2018-08-09T13:22:33.274Z,21.77
2018-08-09T13:25:01.845Z,21.17
2018-08-09T13:27:30.547Z,21.73
2018-08-09T13:29:59.997Z,21.47
2018-08-09T13:32:28.594Z,20.98
2018-08-09T13:34:57.272Z,21.25
2018-08-09T13:37:26.333Z,18.44
2018-08-09T13:39:54.885Z,18.06
2018-08-09T13:42:23.472Z,18.87
2018-08-09T13:44:52.067Z,18.54
2018-08-09T13:47:20.757Z,19.44
2018-08-09T13:49:49.395Z,18.97
2018-08-09T13:52:18.044Z,18.68
2018-08-09T13:54:46.624Z,18.61
2018-08-09T13:57:15.271Z,18.37
2018-08-09T13:59:43.894Z,18.60
2018-08-09T14:33:33.136Z,18.94
2018-08-09T14:36:01.809Z,19.22
2018-08-09T14:38:30.394Z,18.29
2018-08-09T14:40:59.062Z,19.04
2018-08-09T14:43:27.791Z,19.78
2018-08-09T14:45:56.450Z,20.00
2018-08-09T14:48:25.313Z,19.78
2018-08-09T14:50:53.952Z,19.52
2018-08-09T14:53:45.259Z,19.85
2018-08-09T14:56:13.823Z,18.86
2018-08-09T14:58:42.522Z,18.34
2018-08-09T15:01:11.160Z,18.74
2018-08-09T15:06:30.424Z,18.83
2018-08-09T15:08:59.104Z,19.19
2018-08-09T15:11:29.038Z,19.14
2018-08-09T15:43:19.187Z,20.13
2018-08-09T15:45:47.757Z,21.78
2018-08-09T15:48:16.487Z,21.53
2018-08-09T15:50:45.083Z,21.25
2018-08-09T15:53:14.048Z,20.70
2018-08-09T16:21:02.294Z,22.46
2018-08-09T16:23:31.059Z,22.30
2018-08-09T16:25:59.692Z,22.04
2018-08-09T16:28:28.349Z,22.29
2018-08-09T16:30:56.989Z,22.58
2018-08-09T16:33:25.558Z,23.76
2018-08-09T16:35:54.152Z,24.81
2018-08-09T16:38:22.789Z,24.94
2018-08-09T16:40:51.391Z,25.75
2018-08-09T16:43:19.992Z,25.59
2018-08-09T16:45:49.127Z,25.28
2018-08-09T16:48:17.816Z,26.10
2018-08-09T16:50:46.431Z,26.46
2018-08-09T16:58:48.732Z,26.37
2018-08-09T17:01:17.338Z,27.61
2018-08-09T17:29:31.048Z,30.33
2018-08-09T17:31:59.699Z,31.10
2018-08-09T17:34:28.325Z,31.58
2018-08-09T17:36:57.090Z,30.84
2018-08-09T17:39:26.034Z,31.51
2018-08-09T17:45:00.511Z,31.59
2018-08-09T17:47:29.308Z,31.90
2018-08-09T17:49:57.939Z,32.70
2018-08-09T17:52:26.550Z,31.76
2018-08-09T17:54:55.138Z,32.66
2018-08-09T17:57:23.813Z,32.33
2018-08-09T17:59:52.426Z,33.04
2018-08-09T18:02:21.046Z,33.08
2018-08-09T18:04:49.843Z,32.58
2018-08-09T18:07:18.472Z,32.75
2018-08-09T18:09:47.064Z,33.60
2018-08-09T18:32:08.118Z,32.70
2018-08-09T18:34:36.825Z,37.61
2018-08-09T18:37:05.427Z,37.79
2018-08-09T18:39:34.123Z,37.81
2018-08-09T18:42:02.804Z,38.33
2018-08-09T18:44:31.564Z,38.74
2018-08-09T18:47:00.183Z,39.02
2018-08-09T18:49:28.762Z,39.99
2018-08-09T18:51:57.830Z,41.01
2018-08-09T18:54:26.405Z,41.70
2018-08-09T18:56:55.020Z,41.96
2018-08-09T18:59:23.676Z,42.29
2018-08-09T19:01:53.310Z,42.84
2018-08-09T19:04:21.988Z,42.59
2018-08-09T19:06:50.695Z,43.19
2018-08-09T19:09:19.581Z,43.69
2018-08-09T19:11:48.188Z,44.09
2018-08-09T19:14:16.905Z,44.48
2018-08-09T19:16:45.485Z,45.45
2018-08-09T19:19:14.151Z,45.40
2018-08-09T19:21:42.810Z,46.21
2018-08-09T19:24:11.404Z,46.53
2018-08-09T19:26:40.231Z,46.34
2018-08-09T19:29:09.088Z,45.77
2018-08-09T19:31:38.060Z,46.07
2018-08-09T19:34:06.949Z,46.26
2018-08-09T19:36:35.777Z,46.07
2018-08-09T19:39:07.642Z,46.21
2018-08-09T19:41:36.291Z,47.20
2018-08-09T19:45:22.712Z,47.98
2018-08-09T19:47:51.397Z,48.67
2018-08-09T19:50:21.758Z,48.36
2018-08-09T19:52:50.456Z,48.69
2018-08-09T19:55:20.672Z,48.92
2018-08-09T19:57:50.021Z,48.67
2018-08-09T20:00:23.567Z,49.45
2018-08-09T20:02:52.225Z,50.31
2018-08-09T20:05:22.675Z,51.09
2018-08-09T20:07:52.404Z,50.80
2018-08-09T20:10:22.097Z,51.16
2018-08-09T20:12:50.804Z,51.17
2018-08-09T20:15:21.040Z,51.25
2018-08-09T20:17:49.767Z,51.15
2018-08-09T20:20:20.001Z,52.19
2018-08-09T20:22:48.762Z,52.35
2018-08-09T20:25:18.377Z,52.44
2018-08-09T20:27:47.664Z,52.36
2018-08-09T20:30:18.349Z,52.38
2018-08-09T20:32:47.589Z,52.11
2018-08-09T20:35:17.689Z,51.98
2018-08-09T20:37:47.088Z,52.26
2018-08-09T20:40:16.664Z,52.40
2018-08-09T20:42:46.547Z,52.45
2018-08-09T20:45:16.535Z,52.89
2018-08-09T20:47:45.491Z,53.60
2018-08-09T20:50:17.489Z,53.62
2018-08-09T20:52:47.345Z,53.08
2018-08-09T20:55:16.958Z,52.71
2018-08-09T20:57:46.449Z,52.86
2018-08-09T21:00:19.627Z,53.74
2018-08-09T21:02:49.697Z,52.86
2018-08-09T21:05:23.743Z,53.38
2018-08-09T21:07:54.348Z,53.25
2018-08-09T21:10:23.388Z,53.80
2018-08-09T21:12:52.011Z,53.71
2018-08-09T21:15:21.231Z,53.82
2018-08-09T21:17:49.827Z,54.74
2018-08-09T21:20:18.458Z,55.22
2018-08-09T21:22:48.025Z,55.18
2018-08-09T21:25:18.000Z,55.37
2018-08-09T21:27:47.326Z,54.64
2018-08-09T21:30:19.552Z,55.22
2018-08-09T21:32:48.967Z,54.91
2018-08-09T21:35:17.693Z,54.64
2018-08-09T21:37:47.140Z,54.73
2018-08-09T21:40:16.285Z,54.44
2018-08-09T21:42:44.941Z,53.71
2018-08-09T22:03:49.420Z,56.57
2018-08-09T22:06:23.206Z,56.94
2018-08-09T22:08:57.601Z,56.57
2018-08-09T22:11:33.704Z,56.36
2018-08-09T22:14:07.383Z,56.58
2018-08-09T22:16:41.107Z,56.55
2018-08-09T22:22:13.595Z,57.00
2018-08-09T22:24:42.341Z,56.39
2018-08-09T22:27:11.664Z,56.57
2018-08-09T22:29:40.286Z,56.85
2018-08-09T22:32:08.906Z,58.06
2018-08-09T22:34:37.489Z,57.81
2018-08-09T22:37:06.070Z,56.55
2018-08-09T22:39:35.083Z,55.64
2018-08-09T22:42:03.715Z,53.97
2018-08-09T22:44:32.302Z,52.39
2018-08-09T22:47:00.853Z,51.77
2018-08-09T22:49:29.600Z,52.00
2018-08-09T22:51:58.285Z,52.25
2018-08-09T22:54:27.362Z,52.44
2018-08-09T22:56:55.940Z,51.60
2018-08-09T22:59:24.575Z,52.42
2018-08-09T23:15:27.820Z,55.79
2018-08-09T23:17:56.391Z,57.13
2018-08-09T23:20:24.974Z,57.03
2018-08-09T23:22:53.669Z,58.03
2018-08-09T23:25:22.389Z,58.50
2018-08-09T23:27:51.030Z,57.78
2018-08-09T23:30:19.779Z,59.20
2018-08-09T23:32:48.332Z,59.55
2018-08-09T23:35:16.935Z,60.10
2018-08-09T23:37:45.567Z,61.25
2018-08-09T23:40:14.216Z,61.54
2018-08-09T23:42:42.796Z,61.63
2018-08-09T23:45:11.809Z,61.61
2018-08-09T23:47:41.438Z,61.46
